METAR AND TAF INFORMATION
METAR FOR LFLB
ADDS - METARS form results

(0053 UTC 24 January 2019)
Data provider http://aviationweather.gov/metar/data/
 
METAR text: LFLB 240030Z AUTO 03006KT 9999 BKN031 OVC045 01/M01 Q1000
Conditions at: LFLB (CHAMBERY/AIX BAI, FR) observed 0030 UTC 24 January 2019
Temperature: 1.0°C (34°F)
Dewpoint: -1.0°C (30°F) [RH = 86%]
Pressure (altimeter): 29.53 inches Hg (1000.0 mb)
Winds: from the NNE (30 degrees) at 7 MPH (6 knots; 3.1 m/s)
Visibility: 6 or more miles (10+ km)
Ceiling: 3100 feet AGL
Clouds: broken clouds at 3100 feet AGL
overcast cloud deck at 4500 feet AGL
Weather: no significant weather observed at this time

METAR text: LFLB 240000Z AUTO 02010KT 9999 BKN029 OVC040 01/M01 Q0999
Conditions at: LFLB (CHAMBERY/AIX BAI, FR) observed 0000 UTC 24 January 2019
Temperature: 1.0°C (34°F)
Dewpoint: -1.0°C (30°F) [RH = 86%]
Pressure (altimeter): 29.50 inches Hg (999.0 mb)
Winds: from the NNE (20 degrees) at 12 MPH (10 knots; 5.1 m/s)
Visibility: 6 or more miles (10+ km)
Ceiling: 2900 feet AGL
Clouds: broken clouds at 2900 feet AGL
overcast cloud deck at 4000 feet AGL
Weather: no significant weather observed at this time

AIRPORT MAP

RUNWAY INFORMATION
Runway 18 Runway length 6628 ft Runway width 148 ft
Runway elevation 769 ft Runway displaced threshold 755 ft Runway heading 176
Runway 36 Runway length 6628 ft Runway width 148 ft
Runway elevation 778 ft Runway displaced threshold 460 ft Runway heading 356

AIRPORT FREQUENCIES
Type APP Name CHAMBERY A Frequency 123.7 MHZ
Type ATIS Name CHAMBERY A Frequency 124.575 MHZ
Type TWR Name CHAMBERY T Frequency 118.3 MHZ

AIRPORT NEAR NAVIGATION AIDS